x

Frying Pan Shoals, Nc Buoy (41013) Wave Buoy

4:50pm - Fri 22nd May 2015 All times are EDT. -4 hours from GMT.

  • Sig Wave height 3.3ft
  • Swell Direction
  • Peak Period 5s
  • Average Period 4s
  • Wind
    11mph, 16mph gusts
  • Sea Temp 74°f
  • Air Temp 69°f
  • Sea Pressure 1022.6mb
  • Frying Pan Shoals, Nc Buoy
  • Frying Pan Shoals, Nc Buoy

More Historic Weather Station data

Upgrade to MSW Pro to gain access to the past 30 days of data for over 8000 Wavebouys and Weather Stations around the globe.

Join Pro

Comparision Forecast

View Surf forecast
   
Fri 05/22 4:50pm 3.5ft 5s 4s 11 16 mph 1022.6mb 74f 69f
3:50pm 3.5ft 5s 4s 16 18 mph 1022.3mb 74f 68f
2:50pm 4ft 5s 4s 16 20 mph 1022.2mb 74f 68f
1:50pm 4ft 5s 4s 16 20 mph 1021.8mb 74f 68f
12:50pm 4.5ft 5s 5s 18 22 mph 1021.5mb 74f 68f
11:50am 4.5ft 6s 5s 20 25 mph 1021.2mb 74f 68f
10:50am 5ft 5s 5s 20 25 mph 1020.5mb 74f 68f
9:50am 4.5ft 5s 4s 22 27 mph 1019.7mb 74f 68f
8:50am 5ft 5s 4s 22 27 mph 1019.5mb 74f 68f
7:50am 4ft 5s 4s 20 27 mph 1018.6mb 74f 68f
6:50am 4ft 5s 4s 22 27 mph 1017.5mb 74f 68f
5:50am 4ft 4s 4s 22 27 mph 1016.3mb 74f 69f
4:50am  -   -   -  22 27 mph 1015.6mb 75f 69f
3:50am 3.5ft 6s 4s 20 25 mph 1015mb 75f 71f
2:50am 3.5ft 6s 4s 18 22 mph 1014.6mb 75f 72f
1:50am 3.5ft 6s 4s 13 16 mph 1014.5mb 75f 73f
12:50am 3.5ft 6s 5s 11 13 mph 1013.9mb 75f 74f
Thu 05/21 11:50pm 3.5ft 6s 5s 13 16 mph 1012.9mb 75f 74f
10:50pm 4ft 6s 5s 16 18 mph 1012.3mb 75f 75f
9:50pm 4ft 6s 5s 11 13 mph 1012mb 75f 77f
8:50pm 4.5ft 6s 5s 18 20 mph 1010.8mb 76f 78f
7:50pm 4.5ft 6s 4s 16 22 mph 1009.9mb 76f 79f
6:50pm 4.5ft 5s 4s 18 22 mph 1008.7mb 76f 79f
5:50pm 4.5ft 5s 4s 20 25 mph 1008.6mb 76f 78f
4:50pm 3.5ft 5s 4s 22 27 mph 1007.9mb 77f 78f
3:50pm 3ft 5s 4s 18 22 mph 1008.7mb 77f 79f
2:50pm 2.5ft 5s 4s 13 18 mph 1009.5mb 77f 79f
1:50pm 2.5ft 5s 5s 13
mph
1010.1mb 77f 79f
12:50pm 2.5ft 4s 5s 11 13 mph 1011.1mb 77f 79f
11:50am 2.5ft 5s 5s 7 9 mph 1011.7mb 76f 78f
10:50am 2.5ft 5s 4s 7 9 mph 1011.9mb 76f 77f
9:50am 2.5ft 5s 4s 7 9 mph 1012.3mb 76f 77f
8:50am 2.5ft 5s 5s 9
mph
1012.4mb 76f 77f
7:50am 2.5ft 4s 4s 9
mph
1011.9mb 76f 77f
6:50am 2.5ft 5s 5s 9
mph
1012.2mb 76f 76f
5:50am 2.5ft 5s 5s 7 11 mph 1012mb 76f 76f
4:50am 2ft 4s 5s 2
mph
1011mb 76f 76f
3:50am 2ft 9s 5s 4 7 mph 1011.5mb 76f 77f
2:50am 2ft 8s 5s 7 9 mph 1012.2mb 76f 77f
1:50am 2ft 8s 5s 7 9 mph 1012.8mb 76f 77f
12:50am 1.6ft 9s 5s 4
mph
1013.7mb 76f 77f
Wed 05/20 11:50pm 2ft 5s 5s 7 9 mph 1013.9mb 76f 77f
10:50pm 2ft 5s 5s 7 9 mph 1013.9mb 76f 77f
9:50pm 2ft 5s 5s 9
mph
1013.5mb 76f 77f
8:50pm 2ft 8s 4s 4
mph
1013.2mb 76f 77f
7:50pm 2.5ft 5s 4s 2 4 mph 1013mb 76f 77f
6:50pm 2.5ft 9s 4s 7 9 mph 1013.2mb 76f 77f
5:50pm 2.5ft 5s 4s 9 11 mph 1013.6mb 77f 77f
4:50pm 2.5ft 8s 5s 13 16 mph 1013.4mb 78f 78f
3:50pm 2.5ft 6s 5s 11
mph
1013.1mb 77f 78f
2:50pm 2.5ft 6s 5s 7
mph
1013.5mb 78f 78f
1:50pm 2.5ft 5s 5s 4
mph
1013.9mb 77f 77f
12:50pm 2.5ft 6s 5s 4 7 mph 1014.5mb 76f 77f
11:50am 2.5ft 5s 5s 7
mph
1014.7mb 76f 76f
10:50am 2.5ft 5s 5s 7
mph
1014.7mb 75f 76f
9:50am 2.5ft 6s 5s 7 9 mph 1014.1mb 75f 76f
8:50am 2.5ft 6s 4s 7 11 mph 1014.2mb 75f 76f
7:50am 3ft 5s 4s 11 13 mph 1013.7mb 74f 76f
6:50am 3ft 5s 4s 11 13 mph 1013.6mb 74f 75f
5:50am 3.5ft 4s 4s 13 16 mph 1013.1mb 75f 76f
4:50am 3.5ft 5s 4s 16 18 mph 1013.1mb 75f 76f
3:50am 3.5ft 5s 5s 16 20 mph 1013.2mb 75f 76f
2:50am 3.5ft 4s 4s 16 20 mph 1013.4mb 75f 76f
1:50am 3.5ft 5s 4s 18 22 mph 1013.8mb 75f 76f
12:50am 3.5ft 5s 4s 18 22 mph 1014.3mb 75f 76f
Tue 05/19 11:50pm 3ft 4s 4s 16 18 mph 1014.7mb 75f 77f
10:50pm 2.5ft 4s 4s 16 20 mph 1015mb 75f 78f
9:50pm 2.5ft 4s 4s 16 18 mph 1014.5mb 75f 77f
8:50pm 2.5ft 4s 4s 11 13 mph 1014.2mb 75f 77f
7:50pm 2.5ft 4s 4s 11 13 mph 1014.4mb 75f 77f
6:50pm 2.5ft 8s 4s 13 16 mph 1013.8mb 75f 77f
5:50pm 2.5ft 8s 4s 16 20 mph 1014.1mb 75f 77f
4:50pm 2.5ft 8s 4s 13 18 mph 1014.8mb 75f 77f
3:50pm 2.5ft 8s 4s 16 18 mph 1015.4mb 75f 77f
2:50pm 2.5ft 8s 4s 18 20 mph 1016mb 75f 76f
1:50pm 2.5ft 8s 4s 16 18 mph 1016.8mb 75f 76f
12:50pm 2.5ft 9s 4s 16 20 mph 1017.2mb 75f 76f
11:50am 2.5ft 8s 4s 13 16 mph 1017.7mb 75f 76f
10:50am 2.5ft 8s 4s 13 16 mph 1017.7mb 75f 76f
9:50am 2.5ft 4s 4s 16 18 mph 1017.6mb 75f 76f
8:50am 2.5ft 8s 4s 13 16 mph 1017.6mb 75f 76f
7:50am 2.5ft 4s 4s 16 18 mph 1017.5mb 75f 76f
6:50am 3ft 4s 4s 16 18 mph 1017.3mb 75f 75f
5:50am 3ft 9s 4s 18 20 mph 1017.2mb 75f 75f
4:50am 3ft 4s 4s 13 16 mph 1017.5mb 75f 75f
3:50am 3ft 8s 4s 16 18 mph 1018.1mb 75f 76f
2:50am 3ft 9s 4s 13 16 mph 1018.4mb 75f 76f
1:50am 3ft 4s 4s 16 20 mph 1018.8mb 75f 76f
12:50am 3ft 4s 4s 18 20 mph 1019.2mb 75f 76f
Mon 05/18 11:50pm 2.5ft 9s 4s 16 20 mph 1020mb 75f 76f
10:50pm 2.5ft 8s 4s 18 20 mph 1019.9mb 75f 76f